Time,TemperatureF,DewpointF,PressureIn,WindDirection,WindDirectionDegrees,WindSpeedMPH,WindSpeedGustMPH,Humidity,HourlyPrecipIn,Conditions,Clouds,dailyrainin,SolarRadiationWatts/m^2,SoftwareType,DateUTC
2013-03-03 00:05:00,34.1,33.3,29.57,North,359,7.0,11.0,97,0.00,,,0.10,0,Wunderground v.1.15,2013-03-03 05:05:00,
2013-03-03 00:34:00,34.2,33.4,29.57,North,357,6.0,11.0,97,0.00,,,0.11,0,Wunderground v.1.15,2013-03-03 05:34:00,
2013-03-03 01:05:00,34.2,33.4,29.57,North,3,5.0,8.0,97,0.00,,,0.12,0,Wunderground v.1.15,2013-03-03 06:05:00,
2013-03-03 01:34:00,34.2,33.4,29.57,North,5,4.0,4.0,97,0.00,,,0.12,0,Wunderground v.1.15,2013-03-03 06:34:00,
2013-03-03 02:05:00,34.2,33.4,29.56,North,351,5.0,5.0,97,0.00,,,0.12,0,Wunderground v.1.15,2013-03-03 07:05:00,
2013-03-03 02:35:00,34.2,33.7,29.56,North,356,4.0,8.0,98,0.00,,,0.13,0,Wunderground v.1.15,2013-03-03 07:35:00,
2013-03-03 03:05:00,34.3,33.8,29.55,North,358,5.0,9.0,98,0.00,,,0.14,0,Wunderground v.1.15,2013-03-03 08:05:00,
2013-03-03 03:34:00,34.4,33.9,29.55,North,1,6.0,6.0,98,0.00,,,0.14,0,Wunderground v.1.15,2013-03-03 08:34:00,
2013-03-03 04:05:00,34.4,33.9,29.55,North,6,6.0,10.0,98,0.00,,,0.15,0,Wunderground v.1.15,2013-03-03 09:05:00,
2013-03-03 04:34:00,34.5,33.7,29.55,North,357,6.0,12.0,97,0.00,,,0.15,0,Wunderground v.1.15,2013-03-03 09:34:00,
2013-03-03 05:05:00,34.5,33.7,29.55,North,2,6.0,6.0,97,0.00,,,0.15,0,Wunderground v.1.15,2013-03-03 10:05:00,
2013-03-03 05:35:00,34.4,33.6,29.55,North,357,5.0,9.0,97,0.00,,,0.15,0,Wunderground v.1.15,2013-03-03 10:35:00,
2013-03-03 06:05:00,34.4,33.6,29.56,NNW,345,5.0,5.0,97,0.00,,,0.15,0,Wunderground v.1.15,2013-03-03 11:05:00,
2013-03-03 06:34:00,34.5,33.7,29.56,North,353,4.0,10.0,97,0.00,,,0.15,16,Wunderground v.1.15,2013-03-03 11:34:00,
2013-03-03 07:05:00,34.7,33.9,29.56,NNW,343,4.0,9.0,97,0.00,,,0.15,47,Wunderground v.1.15,2013-03-03 12:05:00,
2013-03-03 07:35:00,35.3,34.5,29.56,NNW,333,2.0,8.0,97,0.00,,,0.15,91,Wunderground v.1.15,2013-03-03 12:35:00,
2013-03-03 08:05:00,36.0,35.2,29.56,NW,313,3.0,8.0,97,0.00,,,0.15,149,Wunderground v.1.15,2013-03-03 13:05:00,
2013-03-03 08:35:00,36.0,35.0,29.56,NNW,333,3.0,3.0,96,0.00,,,0.15,105,Wunderground v.1.15,2013-03-03 13:35:00,
2013-03-03 09:05:00,36.4,35.4,29.56,NNW,334,2.0,7.0,96,0.00,,,0.15,149,Wunderground v.1.15,2013-03-03 14:05:00,
2013-03-03 09:34:00,37.2,35.9,29.55,North,355,4.0,9.0,95,0.00,,,0.15,250,Wunderground v.1.15,2013-03-03 14:34:00,
2013-03-03 10:05:00,37.5,35.9,29.54,North,7,5.0,10.0,94,0.00,,,0.15,244,Wunderground v.1.15,2013-03-03 15:05:00,
2013-03-03 10:35:00,38.5,36.4,29.54,North,3,6.0,12.0,92,0.00,,,0.15,322,Wunderground v.1.15,2013-03-03 15:35:00,
2013-03-03 11:05:00,38.9,35.6,29.53,North,7,7.0,12.0,88,0.00,,,0.15,374,Wunderground v.1.15,2013-03-03 16:05:00,
2013-03-03 11:35:00,39.8,36.0,29.52,North,360,5.0,13.0,86,0.00,,,0.15,295,Wunderground v.1.15,2013-03-03 16:35:00,
2013-03-03 12:05:00,39.8,35.1,29.52,NNE,16,5.0,12.0,83,0.00,,,0.15,223,Wunderground v.1.15,2013-03-03 17:05:00,
2013-03-03 12:34:00,40.2,34.8,29.51,North,3,6.0,14.0,81,0.00,,,0.00,225,Wunderground v.1.15,2013-03-03 17:34:00,
2013-03-03 13:05:00,41.2,35.5,29.50,NNE,15,3.0,12.0,80,0.00,,,0.00,341,Wunderground v.1.15,2013-03-03 18:05:00,
2013-03-03 13:35:00,42.2,35.2,29.49,NW,322,4.0,4.0,76,0.00,,,0.00,213,Wunderground v.1.15,2013-03-03 18:35:00,
2013-03-03 14:05:00,41.1,35.4,29.49,NW,322,6.0,6.0,80,0.00,,,0.00,162,Wunderground v.1.15,2013-03-03 19:05:00,
2013-03-03 14:34:00,42.8,34.7,29.49,North,354,3.0,10.0,73,0.00,,,0.00,183,Wunderground v.1.15,2013-03-03 19:34:00,
2013-03-03 15:05:00,42.2,33.8,29.49,NE,40,5.0,5.0,72,0.00,,,0.00,139,Wunderground v.1.15,2013-03-03 20:05:00,
2013-03-03 15:35:00,42.3,33.6,29.48,North,3,4.0,4.0,71,0.00,,,0.00,123,Wunderground v.1.15,2013-03-03 20:35:00,
2013-03-03 16:05:00,42.4,33.3,29.48,NNW,343,2.0,7.0,70,0.00,,,0.00,109,Wunderground v.1.15,2013-03-03 21:05:00,
2013-03-03 16:35:00,41.9,33.2,29.49,NW,321,3.0,3.0,71,0.00,,,0.00,56,Wunderground v.1.15,2013-03-03 21:35:00,
2013-03-03 17:05:00,41.2,33.2,29.49,North,349,4.0,4.0,73,0.00,,,0.00,14,Wunderground v.1.15,2013-03-03 22:05:00,
2013-03-03 17:35:00,40.6,33.0,29.49,NNW,336,3.0,3.0,74,0.00,,,0.00,0,Wunderground v.1.15,2013-03-03 22:35:00,
2013-03-03 18:05:00,40.1,32.8,29.50,NNW,340,2.0,8.0,75,0.00,,,0.00,0,Wunderground v.1.15,2013-03-03 23:05:00,
2013-03-03 18:35:00,39.4,33.1,29.50,NW,323,5.0,5.0,78,0.00,,,0.00,0,Wunderground v.1.15,2013-03-03 23:35:00,
2013-03-03 19:05:00,38.9,33.3,29.49,NW,326,3.0,8.0,80,0.00,,,0.00,0,Wunderground v.1.15,2013-03-04 00:05:00,
2013-03-03 19:35:00,38.8,33.5,29.49,NNW,328,4.0,4.0,81,0.00,,,0.00,0,Wunderground v.1.15,2013-03-04 00:35:00,
2013-03-03 20:05:00,38.8,33.5,29.49,North,349,7.0,11.0,81,0.00,,,0.00,0,Wunderground v.1.15,2013-03-04 01:05:00,
2013-03-03 20:35:00,38.6,32.6,29.49,NNE,18,8.0,8.0,79,0.00,,,0.00,0,Wunderground v.1.15,2013-03-04 01:35:00,
2013-03-03 21:05:00,38.4,31.8,29.49,NNE,16,10.0,13.0,77,0.00,,,0.00,0,Wunderground v.1.15,2013-03-04 02:05:00,
2013-03-03 21:34:00,38.1,31.5,29.49,NNW,340,8.0,18.0,77,0.00,,,0.00,0,Wunderground v.1.15,2013-03-04 02:34:00,
2013-03-03 22:05:00,37.7,31.1,29.48,North,358,7.0,7.0,77,0.00,,,0.00,0,Wunderground v.1.15,2013-03-04 03:05:00,
2013-03-03 22:35:00,37.4,30.8,29.47,NNW,347,8.0,18.0,77,0.00,,,0.00,0,Wunderground v.1.15,2013-03-04 03:35:00,
2013-03-03 23:05:00,37.1,30.9,29.47,NNE,14,6.0,6.0,78,0.00,,,0.00,0,Wunderground v.1.15,2013-03-04 04:05:00,
2013-03-03 23:34:00,36.6,30.7,29.47,NNW,340,4.0,4.0,79,0.00,,,0.00,0,Wunderground v.1.15,2013-03-04 04:34:00,